Terminal Aerodrome Forecast
Issued by NWS

Current Version | Previous Version | Text Only | Print | Product List | Glossary On
Versions: 1 2 3 4 5 6 7 8 9 10 11 12 13
453
FTUS45 KABQ 292334
TAFAEG
TAF
KAEG 292334Z 3000/3024 21014G20KT P6SM VCTS SCT090CB BKN140
      TEMPO 3000/3001 02025G35KT TSRA BKN090CB
     FM300100 20009KT P6SM VCSH BKN090
     FM300400 14007KT P6SM SCT150
     FM301700 18010KT P6SM FEW080
     FM302200 18014G20KT P6SM VCTS SCT080CB=

USA.gov is the U.S. government's official web portal to all federal, state and local government web resources and services.